sensor_id;sensor_type;location;lat;lon;timestamp;P1;durP1;ratioP1;P2;durP2;ratioP2
35562;SDS011;21665;40.108;18.302;2023-01-01T00:01:06;1404.97;;;243.65;;
35562;SDS011;21665;40.108;18.302;2023-01-01T00:03:34;1676.70;;;318.42;;
35562;SDS011;21665;40.108;18.302;2023-01-01T00:06:04;1325.28;;;270.00;;
35562;SDS011;21665;40.108;18.302;2023-01-01T00:08:31;1420.50;;;553.22;;
35562;SDS011;21665;40.108;18.302;2023-01-01T00:11:01;1999.90;;;794.70;;
35562;SDS011;21665;40.108;18.302;2023-01-01T00:13:35;1010.40;;;256.10;;
35562;SDS011;21665;40.108;18.302;2023-01-01T00:18:42;514.85;;;124.15;;
35562;SDS011;21665;40.108;18.302;2023-01-01T00:21:12;491.25;;;128.80;;
35562;SDS011;21665;40.108;18.302;2023-01-01T00:23:39;521.42;;;128.85;;
35562;SDS011;21665;40.108;18.302;2023-01-01T00:26:10;399.75;;;115.15;;
35562;SDS011;21665;40.108;18.302;2023-01-01T00:28:38;364.45;;;91.43;;
35562;SDS011;21665;40.108;18.302;2023-01-01T00:31:08;413.65;;;101.68;;
35562;SDS011;21665;40.108;18.302;2023-01-01T00:33:37;477.98;;;105.28;;
35562;SDS011;21665;40.108;18.302;2023-01-01T00:36:05;389.08;;;94.55;;
35562;SDS011;21665;40.108;18.302;2023-01-01T00:38:34;430.00;;;100.57;;
35562;SDS011;21665;40.108;18.302;2023-01-01T00:41:01;518.28;;;114.47;;
35562;SDS011;21665;40.108;18.302;2023-01-01T00:43:29;668.03;;;123.25;;
35562;SDS011;21665;40.108;18.302;2023-01-01T00:45:56;633.60;;;108.65;;
35562;SDS011;21665;40.108;18.302;2023-01-01T00:48:23;550.95;;;106.57;;
35562;SDS011;21665;40.108;18.302;2023-01-01T00:50:50;506.17;;;102.07;;
35562;SDS011;21665;40.108;18.302;2023-01-01T00:53:18;423.95;;;87.40;;
35562;SDS011;21665;40.108;18.302;2023-01-01T00:55:49;387.50;;;95.22;;
35562;SDS011;21665;40.108;18.302;2023-01-01T00:58:17;313.73;;;79.80;;
35562;SDS011;21665;40.108;18.302;2023-01-01T01:00:44;262.58;;;77.18;;
35562;SDS011;21665;40.108;18.302;2023-01-01T01:03:12;249.73;;;79.57;;
35562;SDS011;21665;40.108;18.302;2023-01-01T01:08:36;230.90;;;75.07;;
35562;SDS011;21665;40.108;18.302;2023-01-01T01:11:09;263.17;;;77.82;;
35562;SDS011;21665;40.108;18.302;2023-01-01T01:13:38;249.98;;;75.78;;
35562;SDS011;21665;40.108;18.302;2023-01-01T01:16:39;257.20;;;76.32;;
35562;SDS011;21665;40.108;18.302;2023-01-01T01:19:01;232.23;;;74.88;;
35562;SDS011;21665;40.108;18.302;2023-01-01T01:21:30;386.40;;;103.38;;
35562;SDS011;21665;40.108;18.302;2023-01-01T01:23:58;495.55;;;104.40;;
35562;SDS011;21665;40.108;18.302;2023-01-01T01:26:28;480.08;;;113.15;;
35562;SDS011;21665;40.108;18.302;2023-01-01T01:28:57;492.38;;;100.25;;
35562;SDS011;21665;40.108;18.302;2023-01-01T01:31:25;464.42;;;92.88;;
35562;SDS011;21665;40.108;18.302;2023-01-01T01:33:54;376.30;;;88.97;;
35562;SDS011;21665;40.108;18.302;2023-01-01T01:36:22;417.52;;;103.00;;
35562;SDS011;21665;40.108;18.302;2023-01-01T01:38:50;363.40;;;95.00;;
35562;SDS011;21665;40.108;18.302;2023-01-01T01:41:18;313.42;;;87.20;;
35562;SDS011;21665;40.108;18.302;2023-01-01T01:43:52;333.17;;;93.40;;
35562;SDS011;21665;40.108;18.302;2023-01-01T01:51:34;519.53;;;122.47;;
35562;SDS011;21665;40.108;18.302;2023-01-01T01:56:44;419.63;;;120.20;;
35562;SDS011;21665;40.108;18.302;2023-01-01T01:59:17;298.38;;;107.90;;
35562;SDS011;21665;40.108;18.302;2023-01-01T02:01:45;373.95;;;113.57;;
35562;SDS011;21665;40.108;18.302;2023-01-01T02:04:13;375.35;;;114.60;;
35562;SDS011;21665;40.108;18.302;2023-01-01T02:06:41;436.08;;;126.00;;
35562;SDS011;21665;40.108;18.302;2023-01-01T02:09:09;368.55;;;115.63;;
35562;SDS011;21665;40.108;18.302;2023-01-01T02:11:36;271.77;;;102.35;;
35562;SDS011;21665;40.108;18.302;2023-01-01T02:14:03;300.90;;;104.40;;
35562;SDS011;21665;40.108;18.302;2023-01-01T02:19:09;473.92;;;123.70;;
35562;SDS011;21665;40.108;18.302;2023-01-01T02:21:44;491.70;;;124.32;;
35562;SDS011;21665;40.108;18.302;2023-01-01T02:30:36;454.30;;;120.05;;
35562;SDS011;21665;40.108;18.302;2023-01-01T02:33:13;343.80;;;104.68;;
35562;SDS011;21665;40.108;18.302;2023-01-01T02:35:47;390.90;;;113.35;;
35562;SDS011;21665;40.108;18.302;2023-01-01T02:38:34;391.75;;;109.07;;
35562;SDS011;21665;40.108;18.302;2023-01-01T02:41:08;359.98;;;103.82;;
35562;SDS011;21665;40.108;18.302;2023-01-01T02:43:56;313.63;;;97.40;;
35562;SDS011;21665;40.108;18.302;2023-01-01T02:46:24;273.05;;;93.40;;
35562;SDS011;21665;40.108;18.302;2023-01-01T02:49:00;290.55;;;92.00;;
35562;SDS011;21665;40.108;18.302;2023-01-01T02:54:43;289.98;;;88.53;;
35562;SDS011;21665;40.108;18.302;2023-01-01T02:57:42;225.48;;;81.00;;
35562;SDS011;21665;40.108;18.302;2023-01-01T03:00:17;244.73;;;79.63;;
35562;SDS011;21665;40.108;18.302;2023-01-01T03:09:11;256.83;;;85.28;;
35562;SDS011;21665;40.108;18.302;2023-01-01T03:20:02;247.20;;;81.93;;
35562;SDS011;21665;40.108;18.302;2023-01-01T03:22:37;205.35;;;74.22;;
35562;SDS011;21665;40.108;18.302;2023-01-01T03:25:11;205.40;;;75.65;;
35562;SDS011;21665;40.108;18.302;2023-01-01T03:27:45;211.85;;;75.80;;
35562;SDS011;21665;40.108;18.302;2023-01-01T03:30:25;220.38;;;78.88;;
35562;SDS011;21665;40.108;18.302;2023-01-01T03:32:57;219.30;;;75.88;;
35562;SDS011;21665;40.108;18.302;2023-01-01T03:35:33;241.32;;;81.68;;
35562;SDS011;21665;40.108;18.302;2023-01-01T03:41:05;364.92;;;87.82;;
35562;SDS011;21665;40.108;18.302;2023-01-01T03:43:44;536.55;;;100.40;;
35562;SDS011;21665;40.108;18.302;2023-01-01T03:46:19;297.55;;;83.63;;
35562;SDS011;21665;40.108;18.302;2023-01-01T03:48:50;372.98;;;89.15;;
35562;SDS011;21665;40.108;18.302;2023-01-01T03:56:56;279.65;;;79.05;;
35562;SDS011;21665;40.108;18.302;2023-01-01T03:59:56;400.73;;;89.63;;
35562;SDS011;21665;40.108;18.302;2023-01-01T04:02:48;489.20;;;96.82;;
35562;SDS011;21665;40.108;18.302;2023-01-01T04:05:17;281.75;;;79.57;;
35562;SDS011;21665;40.108;18.302;2023-01-01T04:07:44;358.65;;;86.47;;
35562;SDS011;21665;40.108;18.302;2023-01-01T04:10:16;391.00;;;87.35;;
35562;SDS011;21665;40.108;18.302;2023-01-01T04:12:47;361.52;;;87.65;;
35562;SDS011;21665;40.108;18.302;2023-01-01T04:15:16;379.67;;;90.95;;
35562;SDS011;21665;40.108;18.302;2023-01-01T04:17:46;383.38;;;91.57;;
35562;SDS011;21665;40.108;18.302;2023-01-01T04:20:13;414.63;;;95.55;;
35562;SDS011;21665;40.108;18.302;2023-01-01T04:22:40;247.38;;;79.90;;
35562;SDS011;21665;40.108;18.302;2023-01-01T04:25:10;323.83;;;88.63;;
35562;SDS011;21665;40.108;18.302;2023-01-01T04:27:38;233.30;;;77.40;;
35562;SDS011;21665;40.108;18.302;2023-01-01T04:30:09;302.17;;;86.28;;
35562;SDS011;21665;40.108;18.302;2023-01-01T04:32:38;269.27;;;82.25;;
35562;SDS011;21665;40.108;18.302;2023-01-01T04:35:05;212.30;;;74.68;;
35562;SDS011;21665;40.108;18.302;2023-01-01T04:37:36;225.15;;;74.32;;
35562;SDS011;21665;40.108;18.302;2023-01-01T04:40:03;266.83;;;78.45;;
35562;SDS011;21665;40.108;18.302;2023-01-01T04:42:30;201.73;;;71.57;;
35562;SDS011;21665;40.108;18.302;2023-01-01T04:44:57;208.55;;;71.85;;
35562;SDS011;21665;40.108;18.302;2023-01-01T04:47:24;201.23;;;67.15;;
35562;SDS011;21665;40.108;18.302;2023-01-01T04:49:53;226.63;;;72.45;;
35562;SDS011;21665;40.108;18.302;2023-01-01T04:52:20;215.55;;;70.70;;
35562;SDS011;21665;40.108;18.302;2023-01-01T04:54:48;214.63;;;69.28;;
35562;SDS011;21665;40.108;18.302;2023-01-01T04:57:18;230.93;;;74.40;;
35562;SDS011;21665;40.108;18.302;2023-01-01T04:59:45;361.15;;;87.65;;
35562;SDS011;21665;40.108;18.302;2023-01-01T05:02:12;218.45;;;73.25;;
35562;SDS011;21665;40.108;18.302;2023-01-01T05:04:39;222.27;;;70.00;;
35562;SDS011;21665;40.108;18.302;2023-01-01T05:07:06;289.13;;;80.38;;
35562;SDS011;21665;40.108;18.302;2023-01-01T05:09:32;207.85;;;70.28;;
35562;SDS011;21665;40.108;18.302;2023-01-01T05:11:59;285.23;;;73.07;;
35562;SDS011;21665;40.108;18.302;2023-01-01T05:14:26;230.40;;;64.93;;
35562;SDS011;21665;40.108;18.302;2023-01-01T05:16:53;472.77;;;90.32;;
35562;SDS011;21665;40.108;18.302;2023-01-01T05:19:20;366.85;;;79.65;;
35562;SDS011;21665;40.108;18.302;2023-01-01T05:21:47;427.80;;;89.97;;
35562;SDS011;21665;40.108;18.302;2023-01-01T05:24:13;275.20;;;77.25;;
35562;SDS011;21665;40.108;18.302;2023-01-01T05:26:41;354.23;;;81.85;;
35562;SDS011;21665;40.108;18.302;2023-01-01T05:29:10;263.23;;;74.65;;
35562;SDS011;21665;40.108;18.302;2023-01-01T05:31:40;289.38;;;75.95;;
35562;SDS011;21665;40.108;18.302;2023-01-01T05:34:06;271.42;;;72.72;;
35562;SDS011;21665;40.108;18.302;2023-01-01T05:36:34;224.43;;;65.22;;
35562;SDS011;21665;40.108;18.302;2023-01-01T05:39:12;215.60;;;66.05;;
35562;SDS011;21665;40.108;18.302;2023-01-01T05:41:39;303.90;;;70.72;;
35562;SDS011;21665;40.108;18.302;2023-01-01T05:44:06;338.85;;;72.28;;
35562;SDS011;21665;40.108;18.302;2023-01-01T05:46:37;239.63;;;70.15;;
35562;SDS011;21665;40.108;18.302;2023-01-01T05:49:08;340.63;;;74.43;;
35562;SDS011;21665;40.108;18.302;2023-01-01T05:51:36;322.67;;;71.90;;
35562;SDS011;21665;40.108;18.302;2023-01-01T05:54:05;227.63;;;64.82;;
35562;SDS011;21665;40.108;18.302;2023-01-01T05:56:32;479.33;;;81.93;;
35562;SDS011;21665;40.108;18.302;2023-01-01T05:59:00;360.15;;;76.03;;
35562;SDS011;21665;40.108;18.302;2023-01-01T06:01:27;363.38;;;73.50;;
35562;SDS011;21665;40.108;18.302;2023-01-01T06:03:56;409.42;;;83.88;;
35562;SDS011;21665;40.108;18.302;2023-01-01T06:06:25;312.25;;;75.05;;
35562;SDS011;21665;40.108;18.302;2023-01-01T06:08:54;225.05;;;65.35;;
35562;SDS011;21665;40.108;18.302;2023-01-01T06:11:26;203.57;;;66.90;;
35562;SDS011;21665;40.108;18.302;2023-01-01T06:13:55;198.68;;;64.47;;
35562;SDS011;21665;40.108;18.302;2023-01-01T06:16:23;228.95;;;67.13;;
35562;SDS011;21665;40.108;18.302;2023-01-01T06:18:51;273.77;;;71.57;;
35562;SDS011;21665;40.108;18.302;2023-01-01T06:21:19;214.85;;;64.07;;
35562;SDS011;21665;40.108;18.302;2023-01-01T06:23:47;226.45;;;69.22;;
35562;SDS011;21665;40.108;18.302;2023-01-01T06:26:18;214.38;;;65.05;;
35562;SDS011;21665;40.108;18.302;2023-01-01T06:28:48;173.88;;;61.55;;
35562;SDS011;21665;40.108;18.302;2023-01-01T06:31:16;224.55;;;67.35;;
35562;SDS011;21665;40.108;18.302;2023-01-01T06:33:45;207.98;;;66.78;;
35562;SDS011;21665;40.108;18.302;2023-01-01T06:36:13;190.75;;;63.03;;
35562;SDS011;21665;40.108;18.302;2023-01-01T06:38:43;190.85;;;63.25;;
35562;SDS011;21665;40.108;18.302;2023-01-01T06:41:12;182.48;;;61.30;;
35562;SDS011;21665;40.108;18.302;2023-01-01T06:43:41;193.93;;;64.57;;
35562;SDS011;21665;40.108;18.302;2023-01-01T06:48:45;185.32;;;61.33;;
35562;SDS011;21665;40.108;18.302;2023-01-01T06:51:17;155.48;;;59.00;;
35562;SDS011;21665;40.108;18.302;2023-01-01T06:53:49;172.70;;;61.63;;
35562;SDS011;21665;40.108;18.302;2023-01-01T06:56:17;154.13;;;60.33;;
35562;SDS011;21665;40.108;18.302;2023-01-01T06:58:47;153.45;;;55.53;;
35562;SDS011;21665;40.108;18.302;2023-01-01T07:01:21;147.07;;;54.15;;
35562;SDS011;21665;40.108;18.302;2023-01-01T07:03:52;326.70;;;68.28;;
35562;SDS011;21665;40.108;18.302;2023-01-01T07:06:30;230.75;;;62.25;;
35562;SDS011;21665;40.108;18.302;2023-01-01T07:08:57;334.73;;;69.32;;
35562;SDS011;21665;40.108;18.302;2023-01-01T07:11:24;317.88;;;62.15;;
35562;SDS011;21665;40.108;18.302;2023-01-01T07:13:51;540.60;;;78.63;;
35562;SDS011;21665;40.108;18.302;2023-01-01T07:16:22;404.85;;;68.50;;
35562;SDS011;21665;40.108;18.302;2023-01-01T07:18:49;301.88;;;58.25;;
35562;SDS011;21665;40.108;18.302;2023-01-01T07:23:51;308.00;;;57.72;;
35562;SDS011;21665;40.108;18.302;2023-01-01T07:26:30;474.15;;;69.30;;
35562;SDS011;21665;40.108;18.302;2023-01-01T07:28:58;430.10;;;66.18;;
35562;SDS011;21665;40.108;18.302;2023-01-01T07:31:25;395.13;;;62.30;;
35562;SDS011;21665;40.108;18.302;2023-01-01T07:33:52;319.75;;;59.72;;
35562;SDS011;21665;40.108;18.302;2023-01-01T07:36:19;337.80;;;60.92;;
35562;SDS011;21665;40.108;18.302;2023-01-01T07:38:46;334.00;;;61.75;;
35562;SDS011;21665;40.108;18.302;2023-01-01T07:41:13;352.67;;;61.10;;
35562;SDS011;21665;40.108;18.302;2023-01-01T07:43:40;232.52;;;52.88;;
35562;SDS011;21665;40.108;18.302;2023-01-01T07:46:08;280.88;;;55.97;;
35562;SDS011;21665;40.108;18.302;2023-01-01T07:48:38;236.15;;;52.40;;
35562;SDS011;21665;40.108;18.302;2023-01-01T07:51:05;220.45;;;50.05;;
35562;SDS011;21665;40.108;18.302;2023-01-01T07:53:32;245.15;;;50.55;;
35562;SDS011;21665;40.108;18.302;2023-01-01T07:55:58;135.82;;;44.25;;
35562;SDS011;21665;40.108;18.302;2023-01-01T07:58:25;182.93;;;48.33;;
35562;SDS011;21665;40.108;18.302;2023-01-01T08:00:52;115.53;;;43.90;;
35562;SDS011;21665;40.108;18.302;2023-01-01T08:03:31;121.00;;;43.17;;
35562;SDS011;21665;40.108;18.302;2023-01-01T08:06:07;106.25;;;44.28;;
35562;SDS011;21665;40.108;18.302;2023-01-01T08:08:35;106.03;;;42.80;;
35562;SDS011;21665;40.108;18.302;2023-01-01T08:11:02;94.55;;;43.78;;
35562;SDS011;21665;40.108;18.302;2023-01-01T08:13:29;82.85;;;39.75;;
35562;SDS011;21665;40.108;18.302;2023-01-01T08:15:56;67.18;;;35.83;;
35562;SDS011;21665;40.108;18.302;2023-01-01T08:18:23;77.70;;;38.10;;
35562;SDS011;21665;40.108;18.302;2023-01-01T08:20:51;77.20;;;38.47;;
35562;SDS011;21665;40.108;18.302;2023-01-01T08:23:19;74.43;;;37.20;;
35562;SDS011;21665;40.108;18.302;2023-01-01T08:25:45;77.72;;;38.88;;
35562;SDS011;21665;40.108;18.302;2023-01-01T08:28:12;79.75;;;41.38;;
35562;SDS011;21665;40.108;18.302;2023-01-01T08:30:38;79.93;;;39.95;;
35562;SDS011;21665;40.108;18.302;2023-01-01T08:33:05;84.68;;;38.58;;
35562;SDS011;21665;40.108;18.302;2023-01-01T08:35:32;76.03;;;37.95;;
35562;SDS011;21665;40.108;18.302;2023-01-01T08:38:02;73.88;;;36.38;;
35562;SDS011;21665;40.108;18.302;2023-01-01T08:40:28;68.88;;;37.00;;
35562;SDS011;21665;40.108;18.302;2023-01-01T08:42:58;72.88;;;37.60;;
35562;SDS011;21665;40.108;18.302;2023-01-01T08:45:25;67.05;;;36.53;;
35562;SDS011;21665;40.108;18.302;2023-01-01T08:47:52;62.08;;;36.38;;
35562;SDS011;21665;40.108;18.302;2023-01-01T08:50:19;74.32;;;36.17;;
35562;SDS011;21665;40.108;18.302;2023-01-01T08:52:45;54.20;;;35.72;;
35562;SDS011;21665;40.108;18.302;2023-01-01T08:55:12;50.35;;;33.20;;
35562;SDS011;21665;40.108;18.302;2023-01-01T08:57:42;48.83;;;33.40;;
35562;SDS011;21665;40.108;18.302;2023-01-01T09:00:09;49.85;;;33.00;;
35562;SDS011;21665;40.108;18.302;2023-01-01T09:02:38;53.15;;;36.35;;
35562;SDS011;21665;40.108;18.302;2023-01-01T10:13:57;19.98;;;17.02;;
35562;SDS011;21665;40.108;18.302;2023-01-01T10:34:54;21.45;;;18.63;;
35562;SDS011;21665;40.108;18.302;2023-01-01T10:38:13;20.08;;;18.00;;
35562;SDS011;21665;40.108;18.302;2023-01-01T10:41:58;21.55;;;17.05;;
35562;SDS011;21665;40.108;18.302;2023-01-01T10:49:10;88.97;;;59.67;;
35562;SDS011;21665;40.108;18.302;2023-01-01T11:00:27;17.90;;;15.98;;
35562;SDS011;21665;40.108;18.302;2023-01-01T11:03:27;21.38;;;18.65;;
35562;SDS011;21665;40.108;18.302;2023-01-01T11:09:37;18.35;;;15.95;;
35562;SDS011;21665;40.108;18.302;2023-01-01T11:12:39;19.00;;;17.20;;
35562;SDS011;21665;40.108;18.302;2023-01-01T11:58:58;29.20;;;21.07;;
35562;SDS011;21665;40.108;18.302;2023-01-01T12:30:41;15.80;;;14.30;;
35562;SDS011;21665;40.108;18.302;2023-01-01T12:43:09;14.90;;;13.60;;
35562;SDS011;21665;40.108;18.302;2023-01-01T12:59:51;16.00;;;14.40;;
35562;SDS011;21665;40.108;18.302;2023-01-01T13:02:15;14.48;;;13.10;;
35562;SDS011;21665;40.108;18.302;2023-01-01T15:03:21;16.58;;;15.00;;
35562;SDS011;21665;40.108;18.302;2023-01-01T15:06:12;16.70;;;15.10;;
35562;SDS011;21665;40.108;18.302;2023-01-01T15:17:43;20.58;;;17.48;;
35562;SDS011;21665;40.108;18.302;2023-01-01T15:21:35;19.33;;;17.30;;
35562;SDS011;21665;40.108;18.302;2023-01-01T15:24:38;19.00;;;17.10;;
35562;SDS011;21665;40.108;18.302;2023-01-01T15:27:31;18.73;;;16.90;;
35562;SDS011;21665;40.108;18.302;2023-01-01T15:30:20;20.40;;;18.15;;
35562;SDS011;21665;40.108;18.302;2023-01-01T15:33:17;28.33;;;19.05;;
35562;SDS011;21665;40.108;18.302;2023-01-01T15:36:15;21.63;;;19.52;;
35562;SDS011;21665;40.108;18.302;2023-01-01T15:39:14;25.85;;;22.17;;
35562;SDS011;21665;40.108;18.302;2023-01-01T15:42:05;25.73;;;22.67;;
35562;SDS011;21665;40.108;18.302;2023-01-01T15:44:58;27.27;;;23.63;;
35562;SDS011;21665;40.108;18.302;2023-01-01T16:05:11;27.95;;;24.08;;
35562;SDS011;21665;40.108;18.302;2023-01-01T16:12:19;32.45;;;25.88;;
35562;SDS011;21665;40.108;18.302;2023-01-01T16:32:25;47.10;;;35.95;;
35562;SDS011;21665;40.108;18.302;2023-01-01T16:34:52;56.22;;;41.05;;
35562;SDS011;21665;40.108;18.302;2023-01-01T16:40:12;68.03;;;45.90;;
35562;SDS011;21665;40.108;18.302;2023-01-01T16:49:12;62.03;;;45.03;;
35562;SDS011;21665;40.108;18.302;2023-01-01T16:51:39;68.57;;;47.10;;
35562;SDS011;21665;40.108;18.302;2023-01-01T16:54:06;70.93;;;49.53;;
35562;SDS011;21665;40.108;18.302;2023-01-01T16:56:33;76.68;;;52.80;;
35562;SDS011;21665;40.108;18.302;2023-01-01T16:59:00;67.95;;;47.40;;
35562;SDS011;21665;40.108;18.302;2023-01-01T17:01:27;82.40;;;56.92;;
35562;SDS011;21665;40.108;18.302;2023-01-01T17:03:57;84.80;;;56.92;;
35562;SDS011;21665;40.108;18.302;2023-01-01T17:06:24;95.22;;;62.92;;
35562;SDS011;21665;40.108;18.302;2023-01-01T17:08:51;82.40;;;59.40;;
35562;SDS011;21665;40.108;18.302;2023-01-01T17:11:21;94.93;;;62.05;;
35562;SDS011;21665;40.108;18.302;2023-01-01T17:13:49;86.28;;;58.08;;
35562;SDS011;21665;40.108;18.302;2023-01-01T17:16:22;84.53;;;58.38;;
35562;SDS011;21665;40.108;18.302;2023-01-01T17:18:49;91.82;;;61.78;;
35562;SDS011;21665;40.108;18.302;2023-01-01T17:21:29;80.45;;;53.28;;
35562;SDS011;21665;40.108;18.302;2023-01-01T17:23:56;86.20;;;58.83;;
35562;SDS011;21665;40.108;18.302;2023-01-01T17:26:25;81.90;;;55.78;;
35562;SDS011;21665;40.108;18.302;2023-01-01T17:28:51;90.65;;;57.65;;
35562;SDS011;21665;40.108;18.302;2023-01-01T17:31:19;86.40;;;55.30;;
35562;SDS011;21665;40.108;18.302;2023-01-01T17:33:47;74.07;;;50.05;;
35562;SDS011;21665;40.108;18.302;2023-01-01T17:36:15;78.30;;;54.72;;
35562;SDS011;21665;40.108;18.302;2023-01-01T17:38:45;251.77;;;140.50;;
35562;SDS011;21665;40.108;18.302;2023-01-01T17:41:13;127.47;;;72.55;;
35562;SDS011;21665;40.108;18.302;2023-01-01T17:43:45;82.80;;;52.30;;
35562;SDS011;21665;40.108;18.302;2023-01-01T17:46:19;83.53;;;51.92;;
35562;SDS011;21665;40.108;18.302;2023-01-01T17:48:50;79.50;;;52.45;;
35562;SDS011;21665;40.108;18.302;2023-01-01T17:51:18;85.00;;;56.13;;
35562;SDS011;21665;40.108;18.302;2023-01-01T17:53:45;98.13;;;63.40;;
35562;SDS011;21665;40.108;18.302;2023-01-01T17:56:16;85.38;;;55.25;;
35562;SDS011;21665;40.108;18.302;2023-01-01T17:58:44;80.05;;;53.97;;
35562;SDS011;21665;40.108;18.302;2023-01-01T18:03:41;84.15;;;55.08;;
35562;SDS011;21665;40.108;18.302;2023-01-01T18:06:07;89.10;;;54.40;;
35562;SDS011;21665;40.108;18.302;2023-01-01T18:08:34;90.53;;;58.45;;
35562;SDS011;21665;40.108;18.302;2023-01-01T18:11:01;84.32;;;56.53;;
35562;SDS011;21665;40.108;18.302;2023-01-01T18:13:28;89.32;;;60.35;;
35562;SDS011;21665;40.108;18.302;2023-01-01T18:15:58;89.95;;;58.67;;
35562;SDS011;21665;40.108;18.302;2023-01-01T18:18:26;85.30;;;57.00;;
35562;SDS011;21665;40.108;18.302;2023-01-01T18:21:01;86.35;;;56.13;;
35562;SDS011;21665;40.108;18.302;2023-01-01T18:23:33;92.65;;;58.75;;
35562;SDS011;21665;40.108;18.302;2023-01-01T18:26:00;87.28;;;58.95;;
35562;SDS011;21665;40.108;18.302;2023-01-01T18:28:29;85.35;;;57.92;;
35562;SDS011;21665;40.108;18.302;2023-01-01T18:31:03;89.05;;;59.25;;
35562;SDS011;21665;40.108;18.302;2023-01-01T18:33:34;93.88;;;59.10;;
35562;SDS011;21665;40.108;18.302;2023-01-01T18:36:02;94.15;;;64.15;;
35562;SDS011;21665;40.108;18.302;2023-01-01T18:38:32;100.18;;;63.78;;
35562;SDS011;21665;40.108;18.302;2023-01-01T18:44:04;109.22;;;68.95;;
35562;SDS011;21665;40.108;18.302;2023-01-01T18:49:33;134.23;;;82.10;;
35562;SDS011;21665;40.108;18.302;2023-01-01T18:54:43;136.88;;;88.85;;
35562;SDS011;21665;40.108;18.302;2023-01-01T18:57:15;155.68;;;92.00;;
35562;SDS011;21665;40.108;18.302;2023-01-01T18:59:54;144.20;;;90.37;;
35562;SDS011;21665;40.108;18.302;2023-01-01T19:02:37;145.40;;;91.45;;
35562;SDS011;21665;40.108;18.302;2023-01-01T19:07:41;119.18;;;77.20;;
35562;SDS011;21665;40.108;18.302;2023-01-01T19:10:18;111.35;;;73.75;;
35562;SDS011;21665;40.108;18.302;2023-01-01T19:12:46;117.82;;;75.30;;
35562;SDS011;21665;40.108;18.302;2023-01-01T19:15:14;101.90;;;67.43;;
35562;SDS011;21665;40.108;18.302;2023-01-01T19:17:44;95.53;;;63.13;;
35562;SDS011;21665;40.108;18.302;2023-01-01T19:20:15;90.75;;;60.33;;
35562;SDS011;21665;40.108;18.302;2023-01-01T19:22:49;87.50;;;59.22;;
35562;SDS011;21665;40.108;18.302;2023-01-01T19:25:33;91.85;;;59.95;;
35562;SDS011;21665;40.108;18.302;2023-01-01T19:30:44;91.50;;;59.50;;
35562;SDS011;21665;40.108;18.302;2023-01-01T19:33:12;84.88;;;60.17;;
35562;SDS011;21665;40.108;18.302;2023-01-01T19:35:39;100.95;;;66.60;;
35562;SDS011;21665;40.108;18.302;2023-01-01T19:38:06;100.70;;;67.68;;
35562;SDS011;21665;40.108;18.302;2023-01-01T19:40:33;96.32;;;62.33;;
35562;SDS011;21665;40.108;18.302;2023-01-01T19:43:02;88.80;;;60.67;;
35562;SDS011;21665;40.108;18.302;2023-01-01T19:45:32;99.63;;;62.65;;
35562;SDS011;21665;40.108;18.302;2023-01-01T19:47:58;91.68;;;64.22;;
35562;SDS011;21665;40.108;18.302;2023-01-01T19:50:25;52.38;;;37.25;;
35562;SDS011;21665;40.108;18.302;2023-01-01T19:52:52;72.13;;;48.95;;
35562;SDS011;21665;40.108;18.302;2023-01-01T19:55:19;85.35;;;53.20;;
35562;SDS011;21665;40.108;18.302;2023-01-01T19:57:46;66.75;;;47.58;;
35562;SDS011;21665;40.108;18.302;2023-01-01T20:00:13;64.15;;;47.40;;
35562;SDS011;21665;40.108;18.302;2023-01-01T20:02:40;86.72;;;56.15;;
35562;SDS011;21665;40.108;18.302;2023-01-01T20:05:07;84.78;;;56.83;;
35562;SDS011;21665;40.108;18.302;2023-01-01T20:07:34;80.93;;;56.80;;
35562;SDS011;21665;40.108;18.302;2023-01-01T20:10:00;90.00;;;58.42;;
35562;SDS011;21665;40.108;18.302;2023-01-01T20:12:27;82.82;;;54.97;;
35562;SDS011;21665;40.108;18.302;2023-01-01T20:14:56;124.15;;;81.13;;
35562;SDS011;21665;40.108;18.302;2023-01-01T20:17:23;115.53;;;77.13;;
35562;SDS011;21665;40.108;18.302;2023-01-01T20:19:50;92.85;;;64.47;;
35562;SDS011;21665;40.108;18.302;2023-01-01T20:22:19;89.57;;;62.58;;
35562;SDS011;21665;40.108;18.302;2023-01-01T20:24:47;80.85;;;53.92;;
35562;SDS011;21665;40.108;18.302;2023-01-01T20:27:17;99.72;;;65.82;;
35562;SDS011;21665;40.108;18.302;2023-01-01T20:29:51;125.00;;;80.22;;
35562;SDS011;21665;40.108;18.302;2023-01-01T20:32:19;108.38;;;68.90;;
35562;SDS011;21665;40.108;18.302;2023-01-01T20:34:45;87.57;;;58.40;;
35562;SDS011;21665;40.108;18.302;2023-01-01T20:37:12;84.53;;;55.25;;
35562;SDS011;21665;40.108;18.302;2023-01-01T20:39:57;80.80;;;52.63;;
35562;SDS011;21665;40.108;18.302;2023-01-01T20:42:24;80.00;;;52.10;;
35562;SDS011;21665;40.108;18.302;2023-01-01T20:44:52;79.72;;;49.53;;
35562;SDS011;21665;40.108;18.302;2023-01-01T20:47:19;88.25;;;57.20;;
35562;SDS011;21665;40.108;18.302;2023-01-01T20:49:46;104.57;;;68.03;;
35562;SDS011;21665;40.108;18.302;2023-01-01T20:52:12;104.40;;;65.57;;
35562;SDS011;21665;40.108;18.302;2023-01-01T20:54:39;95.88;;;59.45;;
35562;SDS011;21665;40.108;18.302;2023-01-01T20:57:06;94.03;;;60.67;;
35562;SDS011;21665;40.108;18.302;2023-01-01T20:59:33;89.63;;;57.00;;
35562;SDS011;21665;40.108;18.302;2023-01-01T21:01:59;97.05;;;58.38;;
35562;SDS011;21665;40.108;18.302;2023-01-01T21:04:26;93.93;;;58.70;;
35562;SDS011;21665;40.108;18.302;2023-01-01T21:06:53;75.22;;;48.63;;
35562;SDS011;21665;40.108;18.302;2023-01-01T21:09:19;84.15;;;54.17;;
35562;SDS011;21665;40.108;18.302;2023-01-01T21:11:47;85.00;;;55.22;;
35562;SDS011;21665;40.108;18.302;2023-01-01T21:14:13;74.97;;;49.08;;
35562;SDS011;21665;40.108;18.302;2023-01-01T21:16:41;76.32;;;49.97;;
35562;SDS011;21665;40.108;18.302;2023-01-01T21:19:09;75.20;;;48.30;;
35562;SDS011;21665;40.108;18.302;2023-01-01T21:21:50;129.30;;;74.32;;
35562;SDS011;21665;40.108;18.302;2023-01-01T21:24:20;89.95;;;56.25;;
35562;SDS011;21665;40.108;18.302;2023-01-01T21:27:12;85.78;;;56.17;;
35562;SDS011;21665;40.108;18.302;2023-01-01T21:29:44;67.60;;;43.70;;
35562;SDS011;21665;40.108;18.302;2023-01-01T21:32:20;73.25;;;46.58;;
35562;SDS011;21665;40.108;18.302;2023-01-01T21:35:33;92.85;;;57.55;;
35562;SDS011;21665;40.108;18.302;2023-01-01T21:38:02;87.40;;;55.42;;
35562;SDS011;21665;40.108;18.302;2023-01-01T21:40:52;99.38;;;56.97;;
35562;SDS011;21665;40.108;18.302;2023-01-01T21:46:31;123.85;;;65.43;;
35562;SDS011;21665;40.108;18.302;2023-01-01T21:51:55;108.60;;;58.67;;
35562;SDS011;21665;40.108;18.302;2023-01-01T21:54:29;132.20;;;67.13;;
35562;SDS011;21665;40.108;18.302;2023-01-01T21:57:00;122.82;;;62.65;;
35562;SDS011;21665;40.108;18.302;2023-01-01T21:59:37;110.95;;;58.22;;